Time;durP1;ratioP1;P1;durP2;ratioP2;P2;SDS_P1;SDS_P2;PMS_P1;PMS_P2;Temp;Humidity;BMP_temperature;BMP_pressure;BME280_temperature;BME280_humidity;BME280_pressure;Samples;Min_cycle;Max_cycle;Signal;HPM_P1;HPM_P2
2022/06/19 00:01:37;;;;;;;2.80;2.60;;;;;;;13.00;76.04;96879.47;5013832;28;20046;-63
2022/06/19 00:04:06;;;;;;;3.10;2.80;;;;;;;12.97;75.73;96869.94;5001744;28;20049;-63
2022/06/19 00:06:35;;;;;;;3.90;3.03;;;;;;;12.97;75.57;96877.81;4974584;28;20514;-63
2022/06/19 00:09:03;;;;;;;2.97;2.65;;;;;;;12.93;75.60;96872.75;4974538;28;20053;-64
2022/06/19 00:11:33;;;;;;;6.03;3.38;;;;;;;12.93;75.75;96868.38;4974425;28;20051;-63
2022/06/19 00:14:01;;;;;;;2.83;2.58;;;;;;;12.94;75.17;96875.31;4998793;28;20048;-64
2022/06/19 00:16:28;;;;;;;4.25;2.83;;;;;;;12.94;75.50;96875.31;5013444;28;20056;-64
2022/06/19 00:18:55;;;;;;;3.30;2.70;;;;;;;12.94;74.97;96875.31;5013397;28;20045;-64
2022/06/19 00:21:22;;;;;;;2.92;2.60;;;;;;;12.92;74.62;96877.19;5013325;28;20478;-62
2022/06/19 00:23:49;;;;;;;3.20;2.17;;;;;;;12.93;74.33;96878.88;5005051;28;20131;-63
2022/06/19 00:26:17;;;;;;;4.20;2.70;;;;;;;12.87;74.65;96877.38;4993723;28;20069;-63
2022/06/19 00:28:47;;;;;;;5.85;2.65;;;;;;;12.88;74.75;96876.44;4993461;28;20379;-63
2022/06/19 00:31:14;;;;;;;3.55;2.42;;;;;;;12.86;74.87;96875.63;4993621;28;20405;-63
2022/06/19 00:33:41;;;;;;;2.92;2.35;;;;;;;12.84;75.07;96882.75;4994491;28;20124;-64
2022/06/19 00:36:08;;;;;;;2.60;2.40;;;;;;;12.84;74.94;96880.13;4985662;28;20078;-62
2022/06/19 00:38:35;;;;;;;3.10;2.42;;;;;;;12.84;74.80;96876.63;4993672;28;20501;-63
2022/06/19 00:41:04;;;;;;;2.83;2.45;;;;;;;12.83;74.85;96874.94;4993575;28;20141;-62
2022/06/19 00:43:31;;;;;;;8.50;2.53;;;;;;;12.74;75.04;96870.94;4993432;28;20042;-63
2022/06/19 00:46:23;;;;;;;2.40;2.30;;;;;;;12.79;75.17;96876.81;5010712;28;20149;-63
2022/06/19 00:48:50;;;;;;;2.97;2.28;;;;;;;12.67;75.09;96880.81;5011327;28;20092;-63
2022/06/19 00:51:20;;;;;;;3.13;2.78;;;;;;;12.66;74.98;96875.63;5014530;28;20060;-63
2022/06/19 00:53:48;;;;;;;6.22;2.70;;;;;;;12.66;75.28;96878.25;5017173;28;20054;-64
2022/06/19 00:56:17;;;;;;;3.90;2.67;;;;;;;12.66;75.23;96879.09;5015412;28;20492;-64
2022/06/19 00:58:46;;;;;;;7.78;2.88;;;;;;;12.64;74.99;96873.06;5016787;28;20046;-63
2022/06/19 01:01:17;;;;;;;5.22;2.33;;;;;;;12.60;75.46;96874.09;5017013;28;20053;-63
2022/06/19 01:03:53;;;;;;;5.20;2.72;;;;;;;12.50;75.30;96874.47;5017079;28;20129;-62
2022/06/19 01:06:21;;;;;;;2.72;2.53;;;;;;;12.43;75.65;96869.56;5004054;28;20057;-63
2022/06/19 01:08:48;;;;;;;3.17;2.67;;;;;;;12.36;75.77;96872.41;4997293;28;20474;-62
2022/06/19 01:11:16;;;;;;;3.10;2.70;;;;;;;12.27;77.05;96872.78;4997116;28;20047;-63
2022/06/19 01:13:44;;;;;;;4.40;2.85;;;;;;;12.23;77.80;96868.56;5001382;28;20108;-64
2022/06/19 01:16:12;;;;;;;5.47;2.55;;;;;;;12.27;77.94;96875.41;5016730;28;20108;-63
2022/06/19 01:18:42;;;;;;;4.75;2.70;;;;;;;12.24;77.92;96867.66;5016658;28;20053;-63
2022/06/19 01:21:13;;;;;;;;;;;;;;;12.22;78.32;96866.88;5017019;28;20450;-64
2022/06/19 01:23:45;;;;;;;4.75;2.67;;;;;;;12.18;77.99;96867.88;5014707;28;19932;-64
2022/06/19 01:26:15;;;;;;;3.13;2.80;;;;;;;12.15;77.85;96868.88;4996903;28;20050;-63
2022/06/19 01:28:55;;;;;;;5.03;3.20;;;;;;;12.14;77.39;96872.41;4996780;28;20105;-63
2022/06/19 01:31:26;;;;;;;5.43;2.40;;;;;;;12.12;77.60;96871.59;4996755;28;20062;-64
2022/06/19 01:34:01;;;;;;;7.82;2.47;;;;;;;12.10;77.37;96869.03;4996528;28;20404;-64
2022/06/19 01:36:31;;;;;;;3.80;2.53;;;;;;;12.15;78.02;96873.25;5016279;28;20486;-64
2022/06/19 01:39:00;;;;;;;2.80;2.60;;;;;;;12.17;77.92;96871.44;5016213;28;20510;-65
2022/06/19 01:41:31;;;;;;;3.10;2.60;;;;;;;12.18;77.38;96873.13;5016149;28;20094;-64
2022/06/19 01:43:58;;;;;;;5.57;2.63;;;;;;;12.16;77.31;96875.81;5016172;28;20632;-64
2022/06/19 01:46:28;;;;;;;3.03;2.30;;;;;;;12.10;77.77;96869.03;4999410;28;20050;-64
2022/06/19 01:48:57;;;;;;;2.60;2.40;;;;;;;12.00;78.00;96873.78;5016039;28;20100;-63
2022/06/19 01:51:24;;;;;;;3.53;3.05;;;;;;;11.95;79.05;96875.69;5016000;28;20050;-63
2022/06/19 01:53:57;;;;;;;5.30;3.13;;;;;;;11.94;79.18;96881.00;5001916;28;20046;-63
2022/06/19 01:56:25;;;;;;;9.45;3.10;;;;;;;11.95;78.96;96873.09;4996297;28;20480;-63
2022/06/19 01:58:58;;;;;;;3.00;2.80;;;;;;;11.97;78.39;96880.88;4996288;28;20050;-63
2022/06/19 02:01:25;;;;;;;5.35;2.63;;;;;;;12.00;78.08;96880.78;4997413;28;20054;-64
2022/06/19 02:03:56;;;;;;;3.05;2.72;;;;;;;12.00;78.70;96880.78;5015196;28;20053;-65
2022/06/19 02:06:29;;;;;;;3.80;2.63;;;;;;;12.05;78.36;96881.47;5015882;28;20042;-63
2022/06/19 02:08:56;;;;;;;2.55;2.35;;;;;;;12.05;77.73;96880.59;5015686;28;20050;-63
2022/06/19 02:11:24;;;;;;;4.18;2.53;;;;;;;12.05;77.18;96881.47;5012942;28;20100;-63
2022/06/19 02:13:57;;;;;;;2.70;2.50;;;;;;;12.04;77.03;96878.91;4996042;28;20050;-63
2022/06/19 02:16:24;;;;;;;2.53;2.30;;;;;;;12.07;76.91;96879.66;4996047;28;20108;-64
2022/06/19 02:18:53;;;;;;;2.67;2.45;;;;;;;12.06;76.78;96882.31;4996039;28;20046;-64
2022/06/19 02:21:22;;;;;;;2.97;2.67;;;;;;;12.03;76.79;96878.03;5011055;28;20050;-64
2022/06/19 02:23:51;;;;;;;2.83;2.63;;;;;;;12.03;77.20;96888.53;5015355;28;20054;-65
2022/06/19 02:26:19;;;;;;;3.00;2.70;;;;;;;12.00;77.02;96884.25;5015353;28;20385;-64
2022/06/19 02:28:49;;;;;;;2.80;2.20;;;;;;;12.01;76.39;96885.97;5015118;28;20046;-63
2022/06/19 02:31:18;;;;;;;;;;;;;;;12.02;76.23;96894.69;5003052;28;20419;-65
2022/06/19 02:33:50;;;;;;;5.68;2.70;;;;;;;11.96;77.20;96887.06;4995571;28;20041;-64
2022/06/19 02:36:38;;;;;;;3.55;2.60;;;;;;;11.94;77.41;96891.50;4995584;28;20506;-63
2022/06/19 02:39:22;;;;;;;9.02;2.90;;;;;;;11.88;78.25;96893.44;4995772;28;20082;-64
2022/06/19 02:41:57;;;;;;;3.58;2.88;;;;;;;11.81;79.18;96899.84;4996226;28;20081;-63
2022/06/19 02:44:32;;;;;;;9.70;3.00;;;;;;;11.75;79.64;96900.88;4995469;28;20471;-65
2022/06/19 02:47:00;;;;;;;4.35;2.70;;;;;;;11.77;80.02;96897.38;4995328;28;20177;-64
2022/06/19 02:49:28;;;;;;;3.42;2.85;;;;;;;11.77;79.93;96895.59;4995385;28;20046;-65
2022/06/19 02:51:55;;;;;;;3.63;2.50;;;;;;;11.81;79.57;96888.47;4996081;28;20061;-64
2022/06/19 02:54:22;;;;;;;9.13;3.33;;;;;;;11.85;79.50;96887.44;4995213;28;20081;-65
2022/06/19 02:56:49;;;;;;;3.42;2.90;;;;;;;11.90;79.58;96884.66;4995220;28;20140;-64
2022/06/19 02:59:16;;;;;;;3.95;2.70;;;;;;;11.90;79.49;96885.53;4995150;28;20043;-64
2022/06/19 03:01:43;;;;;;;2.80;2.50;;;;;;;11.92;80.03;96875.81;4996098;28;20046;-64
2022/06/19 03:04:18;;;;;;;3.80;2.80;;;;;;;11.97;79.77;96878.25;4995037;28;20053;-64
2022/06/19 03:06:45;;;;;;;2.65;2.45;;;;;;;11.96;79.76;96876.56;4994939;28;20058;-64
2022/06/19 03:09:13;;;;;;;2.78;2.58;;;;;;;11.96;80.14;96882.69;4995046;28;20050;-64
2022/06/19 03:11:40;;;;;;;3.80;2.83;;;;;;;11.95;79.86;96877.50;4994984;28;20130;-63
2022/06/19 03:14:07;;;;;;;3.00;2.63;;;;;;;11.99;79.74;96876.44;5011146;28;20054;-64
2022/06/19 03:16:34;;;;;;;3.50;2.63;;;;;;;12.03;79.64;96875.41;5014461;28;20050;-63
2022/06/19 03:19:02;;;;;;;4.18;2.38;;;;;;;12.05;79.62;96868.34;5014346;28;20046;-62
2022/06/19 03:21:30;;;;;;;2.63;2.42;;;;;;;12.11;79.20;96868.16;5004842;28;20101;-63
2022/06/19 03:23:57;;;;;;;3.25;2.92;;;;;;;12.20;79.29;96871.31;4994732;28;20089;-64
2022/06/19 03:26:26;;;;;;;3.22;2.45;;;;;;;12.33;79.14;96863.81;4994593;28;20125;-65
2022/06/19 03:28:53;;;;;;;2.22;1.92;;;;;;;12.60;78.23;96864.47;4994497;28;20492;-65
2022/06/19 03:31:22;;;;;;;3.22;2.25;;;;;;;13.01;76.96;96866.25;4995615;28;20088;-64
2022/06/19 03:33:49;;;;;;;3.72;2.03;;;;;;;13.47;75.26;96851.19;4994278;28;20058;-65
2022/06/19 03:36:17;;;;;;;2.67;1.85;;;;;;;14.01;73.11;96861.06;4994496;28;20054;-64
2022/06/19 03:38:46;;;;;;;3.22;1.50;;;;;;;14.51;71.09;96859.56;5007905;28;20129;-65
2022/06/19 03:41:14;;;;;;;2.95;1.65;;;;;;;15.03;69.45;96859.69;4990745;28;20085;-64
2022/06/19 03:43:41;;;;;;;7.88;1.70;;;;;;;15.51;67.28;96854.56;4994431;28;20050;-64
2022/06/19 03:46:13;;;;;;;2.70;1.83;;;;;;;16.02;66.08;96850.19;4994334;28;20133;-63
2022/06/19 03:48:40;;;;;;;5.18;1.98;;;;;;;16.52;63.86;96855.31;4995230;28;20050;-64
2022/06/19 03:51:07;;;;;;;2.47;1.52;;;;;;;16.92;62.42;96855.66;4994222;28;20105;-63
2022/06/19 03:53:35;;;;;;;3.92;1.73;;;;;;;17.32;61.50;96856.91;4994044;28;20050;-63
2022/06/19 03:56:06;;;;;;;6.25;1.30;;;;;;;17.70;60.68;96860.75;4994287;28;20050;-63
2022/06/19 03:58:46;;;;;;;2.55;1.40;;;;;;;18.05;59.25;96862.16;4995089;28;20054;-64
2022/06/19 04:01:14;;;;;;;2.55;1.67;;;;;;;18.20;59.22;96868.31;4994057;28;20046;-64
2022/06/19 04:03:42;;;;;;;3.65;1.50;;;;;;;18.45;58.45;96861.41;4993995;28;20420;-63
2022/06/19 04:06:11;;;;;;;3.60;1.42;;;;;;;18.82;57.84;96869.59;4993870;28;20416;-64
2022/06/19 04:08:38;;;;;;;3.63;1.40;;;;;;;19.17;56.44;96870.00;4993822;28;20130;-64
2022/06/19 04:11:07;;;;;;;1.90;1.30;;;;;;;19.47;55.49;96875.97;5012690;28;20054;-63
2022/06/19 04:13:35;;;;;;;5.53;1.70;;;;;;;19.81;55.28;96877.09;5013322;28;20133;-63
2022/06/19 04:16:03;;;;;;;2.45;1.30;;;;;;;20.14;53.59;96876.66;5013427;28;20085;-64
2022/06/19 04:18:30;;;;;;;3.90;1.65;;;;;;;20.47;52.95;96877.00;5013253;28;20146;-64
2022/06/19 04:20:58;;;;;;;1.95;1.40;;;;;;;20.82;52.22;96886.81;4997137;28;20050;-63
2022/06/19 04:23:26;;;;;;;1.33;1.25;;;;;;;21.20;52.69;96888.41;4993745;28;20429;-63
2022/06/19 04:25:54;;;;;;;2.45;1.73;;;;;;;21.51;49.82;96887.03;4993593;28;20525;-62
2022/06/19 04:28:24;;;;;;;5.05;1.92;;;;;;;21.76;50.70;96891.31;5001286;28;20085;-62
2022/06/19 04:30:52;;;;;;;1.45;1.35;;;;;;;22.00;50.21;96881.53;5013188;28;20487;-63
2022/06/19 04:33:21;;;;;;;5.30;1.40;;;;;;;22.24;50.16;96885.88;5013181;28;20200;-63
2022/06/19 04:35:49;;;;;;;4.30;1.65;;;;;;;22.51;49.30;96888.09;5013295;28;20447;-62
2022/06/19 04:38:17;;;;;;;4.20;1.38;;;;;;;22.65;48.97;96886.16;5011101;28;20042;-62
2022/06/19 04:40:44;;;;;;;4.88;1.60;;;;;;;22.89;47.39;96883.28;5012856;28;20488;-62
2022/06/19 04:43:12;;;;;;;2.53;1.60;;;;;;;23.16;47.06;96889.97;5013160;28;20081;-62
2022/06/19 04:45:41;;;;;;;3.42;1.33;;;;;;;23.44;44.84;96887.66;5013151;28;20050;-64
2022/06/19 04:48:10;;;;;;;3.53;1.73;;;;;;;23.73;45.14;96886.97;5012975;28;20108;-63
2022/06/19 04:50:37;;;;;;;2.53;1.40;;;;;;;23.83;45.15;96883.47;4974280;28;20477;-62
2022/06/19 04:53:04;;;;;;;3.47;1.42;;;;;;;24.00;44.39;96879.34;4981267;28;20108;-63
2022/06/19 04:55:31;;;;;;;2.55;1.40;;;;;;;24.31;43.65;96883.81;4993209;28;20047;-63
2022/06/19 04:58:02;;;;;;;1.63;1.20;;;;;;;24.59;45.59;96890.22;4993519;28;20046;-63
2022/06/19 05:00:29;;;;;;;3.92;1.50;;;;;;;24.77;44.30;96892.19;5008800;28;20081;-63
2022/06/19 05:02:58;;;;;;;1.55;1.40;;;;;;;24.98;42.96;96885.88;5006639;28;20045;-63
2022/06/19 05:05:25;;;;;;;4.07;1.40;;;;;;;25.32;42.96;96884.63;5012241;28;20046;-63
2022/06/19 05:07:52;;;;;;;2.30;1.42;;;;;;;25.56;42.81;96892.19;5007413;28;20061;-63
2022/06/19 05:10:20;;;;;;;1.80;1.35;;;;;;;25.77;42.96;96885.81;5012502;28;20443;-62
2022/06/19 05:12:47;;;;;;;3.70;1.20;;;;;;;25.90;42.10;96887.28;5012075;28;20100;-63
2022/06/19 05:15:14;;;;;;;7.28;1.58;;;;;;;26.17;42.04;96885.63;5012926;28;20134;-63
2022/06/19 05:17:41;;;;;;;3.80;1.70;;;;;;;26.41;42.97;96893.16;5012072;28;20487;-64
2022/06/19 05:20:12;;;;;;;2.13;1.10;;;;;;;26.51;40.41;96887.72;4993279;28;20054;-64
2022/06/19 05:22:39;;;;;;;3.25;1.55;;;;;;;26.69;41.48;96887.75;4993454;28;20054;-64
2022/06/19 05:25:08;;;;;;;1.55;1.25;;;;;;;26.95;39.96;96894.19;4993146;28;20080;-64
2022/06/19 05:27:37;;;;;;;3.70;1.38;;;;;;;27.11;38.37;96897.06;4993187;28;20463;-65
2022/06/19 05:30:05;;;;;;;5.30;1.40;;;;;;;27.23;40.54;96894.13;4992655;28;20057;-64
2022/06/19 05:32:33;;;;;;;1.50;1.30;;;;;;;27.42;42.12;96901.16;4992840;28;20046;-65
2022/06/19 05:35:00;;;;;;;2.35;1.23;;;;;;;27.45;39.63;96903.53;4993239;28;20112;-64
2022/06/19 05:37:29;;;;;;;5.13;1.65;;;;;;;26.96;38.86;96904.78;4994374;28;20397;-63
2022/06/19 05:39:58;;;;;;;3.00;1.40;;;;;;;26.33;39.09;96893.91;4995719;28;20053;-63
2022/06/19 05:42:26;;;;;;;1.90;1.20;;;;;;;26.08;40.00;96906.97;4996612;28;20042;-63
2022/06/19 05:44:53;;;;;;;6.75;1.40;;;;;;;26.25;41.61;96902.66;4996549;28;20050;-66
2022/06/19 05:47:22;;;;;;;25.08;2.30;;;;;;;26.72;40.85;96902.69;4996597;28;20046;-58
2022/06/19 05:49:49;;;;;;;2.45;1.17;;;;;;;26.84;36.24;96898.78;5002483;28;20052;-58
2022/06/19 05:52:24;;;;;;;1.42;1.00;;;;;;;26.93;37.25;96902.41;5015500;28;20085;-59
2022/06/19 05:54:53;;;;;;;3.72;1.20;;;;;;;26.24;36.05;96900.97;5015889;28;20142;-55
2022/06/19 05:57:21;;;;;;;2.90;1.50;;;;;;;26.18;36.11;96895.34;5015976;28;20077;-58
2022/06/19 05:59:48;;;;;;;3.63;1.10;;;;;;;26.07;37.04;96899.09;5012139;28;20074;-56
2022/06/19 06:02:21;;;;;;;3.08;1.30;;;;;;;26.23;37.24;96906.47;4996293;28;20407;-57
2022/06/19 06:04:49;;;;;;;2.05;1.00;;;;;;;26.30;37.03;96904.06;4996231;28;20054;-57
2022/06/19 06:07:16;;;;;;;3.38;1.00;;;;;;;26.16;37.64;96903.56;4996140;28;20047;-57
2022/06/19 06:09:44;;;;;;;3.38;1.30;;;;;;;26.03;35.26;96903.88;4996133;28;20082;-58
2022/06/19 06:12:13;;;;;;;4.70;1.20;;;;;;;25.70;37.23;96906.09;5014430;28;20052;-55
2022/06/19 06:14:40;;;;;;;2.00;1.27;;;;;;;25.73;36.47;96893.28;5015483;28;20050;-59
2022/06/19 06:17:08;;;;;;;2.60;1.27;;;;;;;25.51;38.34;96897.13;5015693;28;21109;-57
2022/06/19 06:19:36;;;;;;;3.28;1.23;;;;;;;25.20;38.14;96895.44;5015569;28;20049;-56
2022/06/19 06:22:04;;;;;;;7.68;1.27;;;;;;;25.12;37.97;96895.34;5013281;28;20046;-59
2022/06/19 06:24:33;;;;;;;1.90;1.27;;;;;;;25.14;37.35;96897.88;5015422;28;20060;-58
2022/06/19 06:27:03;;;;;;;2.47;1.55;;;;;;;25.14;40.09;96905.91;5015349;28;20055;-56
2022/06/19 06:29:38;;;;;;;;;;;;;;;25.29;39.36;96890.25;5015620;28;20104;-59
2022/06/19 06:32:07;;;;;;;5.00;1.50;;;;;;;25.67;39.29;96901.88;5012666;28;19925;-58
2022/06/19 06:34:36;;;;;;;3.63;1.15;;;;;;;25.63;38.25;96897.81;5014735;28;20046;-59
2022/06/19 06:37:03;;;;;;;4.28;1.70;;;;;;;25.66;38.86;96908.25;5015178;28;20053;-59
2022/06/19 06:39:31;;;;;;;3.15;1.20;;;;;;;25.76;38.26;96910.88;5015141;28;20046;-58
2022/06/19 06:41:59;;;;;;;4.95;1.27;;;;;;;25.56;38.05;96897.53;5013428;28;20376;-59
2022/06/19 06:44:27;;;;;;;2.92;1.30;;;;;;;25.69;38.67;96904.44;5014794;28;20079;-54
2022/06/19 06:47:04;;;;;;;2.05;1.30;;;;;;;25.62;39.30;96909.53;5014334;28;20050;-59
2022/06/19 06:49:36;;;;;;;4.15;1.50;;;;;;;25.19;37.75;96907.16;5014859;28;20054;-59
2022/06/19 06:52:07;;;;;;;5.53;1.20;;;;;;;24.92;37.75;96902.53;5012662;28;20050;-59
2022/06/19 06:54:38;;;;;;;2.28;1.45;;;;;;;24.96;39.72;96914.63;4995212;28;20061;-58
2022/06/19 06:57:07;;;;;;;2.25;1.23;;;;;;;25.03;37.21;96899.72;4995214;28;20519;-57
2022/06/19 06:59:36;;;;;;;2.03;1.00;;;;;;;25.28;39.37;96894.75;4996443;28;20072;-58
2022/06/19 07:02:07;;;;;;;3.67;1.38;;;;;;;25.65;36.12;96911.06;5014690;28;20048;-57
2022/06/19 07:04:35;;;;;;;3.15;1.25;;;;;;;25.24;35.46;96904.06;5014752;28;20042;-59
2022/06/19 07:07:02;;;;;;;2.60;1.00;;;;;;;24.92;36.26;96910.56;5013895;28;20149;-61
2022/06/19 07:09:31;;;;;;;2.00;1.10;;;;;;;24.83;36.27;96906.88;5014583;28;20054;-60
2022/06/19 07:11:58;;;;;;;5.70;1.33;;;;;;;24.79;36.89;96908.97;5012462;28;20046;-60
2022/06/19 07:14:26;;;;;;;2.63;1.10;;;;;;;24.79;37.39;96903.59;5014483;28;20049;-60
2022/06/19 07:16:53;;;;;;;3.63;1.30;;;;;;;24.83;36.03;96906.88;5013853;28;20054;-60
2022/06/19 07:19:22;;;;;;;3.95;0.80;;;;;;;25.13;37.98;96912.25;5013316;28;20056;-60
2022/06/19 07:21:50;;;;;;;1.90;0.95;;;;;;;25.23;35.71;96918.44;5012108;28;20377;-60
2022/06/19 07:24:17;;;;;;;1.73;1.00;;;;;;;25.41;34.86;96902.50;5013957;28;20550;-60
2022/06/19 07:26:45;;;;;;;2.92;1.02;;;;;;;25.53;35.91;96918.38;5014269;28;20120;-60
2022/06/19 07:29:12;;;;;;;1.25;1.02;;;;;;;25.34;34.46;96915.59;5014266;28;20128;-60
2022/06/19 07:31:39;;;;;;;0.70;0.70;;;;;;;25.76;35.35;96936.84;5012518;28;20097;-60
2022/06/19 07:34:07;;;;;;;4.82;0.90;;;;;;;25.75;34.31;96933.31;5014198;28;20061;-58
2022/06/19 07:36:37;;;;;;;2.90;1.20;;;;;;;25.39;33.97;96915.16;5013645;28;20054;-59
2022/06/19 07:39:09;;;;;;;1.37;0.90;;;;;;;25.47;35.29;96917.13;5013856;28;20491;-56
2022/06/19 07:41:36;;;;;;;1.40;1.10;;;;;;;25.77;34.10;96917.94;4994284;28;20291;-64
2022/06/19 07:44:03;;;;;;;2.45;0.93;;;;;;;25.93;34.91;96927.19;4994239;28;20134;-64
2022/06/19 07:46:31;;;;;;;0.98;0.90;;;;;;;26.01;32.46;96915.75;4994225;28;20133;-64
2022/06/19 07:51:41;;;;;;;3.25;0.90;;;;;;;26.31;33.87;96913.81;4975253;28;20074;-64
2022/06/19 07:54:09;;;;;;;2.45;1.08;;;;;;;26.17;33.70;96923.16;5013712;28;20079;-64
2022/06/19 07:56:37;;;;;;;3.50;1.00;;;;;;;26.17;32.57;96913.28;5013685;28;20080;-64
2022/06/19 07:59:04;;;;;;;2.88;1.02;;;;;;;26.16;32.33;96914.28;5013435;28;20137;-64
2022/06/19 08:01:32;;;;;;;3.15;0.70;;;;;;;26.05;32.16;96914.47;5011285;28;20046;-64
2022/06/19 08:03:59;;;;;;;1.88;1.00;;;;;;;26.05;33.09;96919.81;5012954;28;20050;-64
2022/06/19 08:06:27;;;;;;;1.85;1.00;;;;;;;26.26;31.79;96924.94;5013139;28;20050;-63
2022/06/19 08:08:56;;;;;;;2.05;1.00;;;;;;;26.18;32.83;96919.47;5013478;28;20054;-64
2022/06/19 08:11:23;;;;;;;5.22;1.90;;;;;;;26.65;34.72;96920.38;5010063;28;20441;-64
2022/06/19 08:13:50;;;;;;;1.90;1.30;;;;;;;26.77;31.19;96919.19;5013190;28;20057;-63
2022/06/19 08:16:18;;;;;;;2.13;1.13;;;;;;;26.99;31.56;96925.97;5013320;28;20088;-63
2022/06/19 08:18:45;;;;;;;3.38;1.20;;;;;;;25.99;33.24;96924.78;5013496;28;20050;-63
2022/06/19 08:21:12;;;;;;;6.40;1.00;;;;;;;25.77;34.43;96920.63;5009274;28;20069;-64
2022/06/19 08:23:39;;;;;;;1.30;1.00;;;;;;;25.85;35.44;96922.56;4993639;28;20050;-64
2022/06/19 08:26:08;;;;;;;3.80;1.05;;;;;;;25.67;33.73;96923.31;4993713;28;20054;-64
2022/06/19 08:28:45;;;;;;;3.08;1.23;;;;;;;25.21;36.28;96918.56;4993450;28;20092;-64
2022/06/19 08:31:12;;;;;;;3.05;1.25;;;;;;;24.77;36.96;96920.78;4994443;28;20081;-64
2022/06/19 08:33:39;;;;;;;1.20;1.10;;;;;;;24.85;35.31;96905.72;5013388;28;20080;-64
2022/06/19 08:36:10;;;;;;;1.85;1.30;;;;;;;24.91;36.98;96917.72;5013371;28;20124;-64
2022/06/19 08:38:40;;;;;;;1.98;1.23;;;;;;;24.84;36.18;96900.50;5006793;28;20053;-63
2022/06/19 08:41:35;;;;;;;2.63;1.10;;;;;;;25.34;36.36;96909.38;4993808;28;20042;-64
2022/06/19 08:44:21;;;;;;;2.20;0.93;;;;;;;25.14;35.21;96908.56;4993658;28;20075;-64
2022/06/19 08:47:00;;;;;;;2.83;1.60;;;;;;;25.14;34.53;96909.44;4993587;28;20416;-64
2022/06/19 08:49:40;;;;;;;4.35;1.00;;;;;;;25.58;35.33;96903.56;4994427;28;20054;-64
2022/06/19 08:52:19;;;;;;;7.88;1.20;;;;;;;26.05;34.32;96891.19;4993650;28;20046;-63
2022/06/19 08:55:03;;;;;;;2.38;0.80;;;;;;;26.17;33.15;96899.03;4993397;28;20101;-63
2022/06/19 08:57:46;;;;;;;4.32;1.20;;;;;;;26.55;35.29;96904.38;4993469;28;20101;-63
2022/06/19 09:00:19;;;;;;;5.47;1.00;;;;;;;26.60;31.63;96894.88;5005440;28;20046;-64
2022/06/19 09:02:58;;;;;;;3.63;1.10;;;;;;;26.08;33.33;96906.13;5013024;28;20101;-63
2022/06/19 09:05:36;;;;;;;1.40;1.00;;;;;;;25.58;31.28;96897.38;5012945;28;20484;-64
2022/06/19 09:08:43;;;;;;;7.07;0.90;;;;;;;25.58;31.97;96903.56;5010780;28;20058;-64
2022/06/19 09:11:26;;;;;;;0.70;0.70;;;;;;;24.71;32.17;96898.94;4993310;28;20051;-63
2022/06/19 09:14:08;;;;;;;1.60;0.90;;;;;;;24.83;32.39;96902.34;4997097;28;20053;-63
2022/06/19 09:16:40;;;;;;;1.60;0.90;;;;;;;24.98;31.91;96899.25;4997135;28;20096;-64
2022/06/19 09:19:16;;;;;;;1.85;0.80;;;;;;;25.27;33.14;96890.41;4997748;28;20058;-64
2022/06/19 09:22:02;;;;;;;1.02;0.80;;;;;;;25.98;34.18;96901.63;4996847;28;20415;-63
2022/06/19 09:24:47;;;;;;;1.13;0.70;;;;;;;25.93;32.68;96892.38;4996830;28;20496;-61
2022/06/19 09:27:16;;;;;;;2.80;1.02;;;;;;;25.88;29.79;96890.13;4996812;28;20107;-61
2022/06/19 09:29:53;;;;;;;2.03;0.95;;;;;;;25.91;32.39;96891.69;4996668;28;20504;-61
2022/06/19 09:32:27;;;;;;;1.90;0.85;;;;;;;25.99;32.74;96884.59;4997608;28;20488;-61
2022/06/19 09:34:59;;;;;;;2.47;0.90;;;;;;;26.30;32.12;96878.13;4996550;28;20085;-62
2022/06/19 09:37:34;;;;;;;1.95;1.02;;;;;;;26.31;33.89;96889.69;4996685;28;20054;-61
2022/06/19 09:40:08;;;;;;;1.88;1.50;;;;;;;26.62;33.36;96881.31;4996593;28;20134;-61
2022/06/19 09:42:40;;;;;;;6.38;1.05;;;;;;;26.36;30.03;96873.97;4996682;28;20097;-62
2022/06/19 09:45:17;;;;;;;4.43;1.48;;;;;;;26.72;33.77;96879.41;4997403;28;20149;-61
2022/06/19 09:47:50;;;;;;;1.50;1.10;;;;;;;27.02;32.82;96881.88;4996484;28;20050;-61
2022/06/19 09:50:23;;;;;;;2.60;2.40;;;;;;;27.23;31.12;96873.50;4996381;28;20389;-61
2022/06/19 09:53:02;;;;;;;2.38;1.00;;;;;;;26.97;29.92;96876.94;4996295;28;20133;-62
2022/06/19 09:55:38;;;;;;;2.80;0.95;;;;;;;26.52;31.89;96877.84;4996266;28;20420;-61
2022/06/19 09:58:12;;;;;;;1.17;0.85;;;;;;;26.31;29.15;96877.09;4995518;28;20112;-61
2022/06/19 10:00:43;;;;;;;1.58;1.00;;;;;;;25.66;30.74;96876.09;4996148;28;20089;-62
2022/06/19 10:03:19;;;;;;;1.20;0.98;;;;;;;25.74;32.31;96872.72;4996105;28;20480;-61
2022/06/19 10:05:51;;;;;;;3.05;0.98;;;;;;;25.93;30.12;96871.78;4996180;28;20061;-61
2022/06/19 10:08:25;;;;;;;1.63;0.90;;;;;;;26.14;29.54;96872.53;4996749;28;20042;-61
2022/06/19 10:10:59;;;;;;;2.35;0.95;;;;;;;26.01;33.23;96867.53;4995960;28;20481;-62
2022/06/19 10:13:37;;;;;;;1.90;1.00;;;;;;;26.15;30.72;96879.59;4996001;28;20563;-61
2022/06/19 10:16:19;;;;;;;1.25;0.70;;;;;;;25.68;29.53;96875.97;4995912;28;20057;-61
2022/06/19 10:18:52;;;;;;;1.10;0.98;;;;;;;25.30;31.27;96878.53;4983041;28;20058;-61
2022/06/19 10:24:19;;;;;;;1.40;1.23;;;;;;;24.58;33.14;96863.59;4995724;28;20141;-61
2022/06/19 10:26:55;;;;;;;1.10;0.98;;;;;;;24.73;34.55;96866.72;4995664;28;20120;-62
2022/06/19 10:29:38;;;;;;;1.58;1.02;;;;;;;25.20;31.17;96860.66;4995387;28;20056;-61
2022/06/19 10:32:21;;;;;;;3.17;0.70;;;;;;;25.73;30.79;96854.94;4995794;28;20138;-61
2022/06/19 10:35:01;;;;;;;1.13;0.80;;;;;;;26.17;30.62;96854.31;4996572;28;20054;-62
2022/06/19 10:37:37;;;;;;;1.15;0.80;;;;;;;26.54;29.60;96846.34;4995671;28;20125;-62
2022/06/19 10:40:18;;;;;;;3.85;1.00;;;;;;;26.57;30.17;96849.59;4995470;28;20429;-62
2022/06/19 10:42:55;;;;;;;1.48;0.90;;;;;;;26.16;29.91;96849.09;4996104;28;20082;-62
2022/06/19 10:45:34;;;;;;;4.70;0.90;;;;;;;26.33;30.71;96834.06;4992127;28;20051;-61
2022/06/19 10:48:26;;;;;;;1.95;0.93;;;;;;;26.70;28.40;96838.47;4986014;28;20050;-62
2022/06/19 10:51:04;;;;;;;2.55;0.88;;;;;;;27.05;30.66;96835.94;4986157;28;20050;-62
2022/06/19 10:53:58;;;;;;;3.10;0.90;;;;;;;26.58;30.46;96837.84;4989268;28;20050;-61
2022/06/19 10:56:36;;;;;;;2.38;0.90;;;;;;;26.26;31.22;96833.81;4962278;28;20053;-61
2022/06/19 10:59:06;;;;;;;1.77;0.90;;;;;;;25.92;31.49;96840.63;4995140;28;20061;-60
2022/06/19 11:04:26;;;;;;;2.20;0.93;;;;;;;26.19;32.28;96833.56;4994957;28;20526;-61
2022/06/19 11:07:00;;;;;;;2.60;0.82;;;;;;;26.02;30.70;96831.69;4994664;28;20078;-61
2022/06/19 11:09:30;;;;;;;1.98;1.08;;;;;;;25.64;31.69;96827.19;4994914;28;20419;-61
2022/06/19 11:12:03;;;;;;;1.38;0.88;;;;;;;25.67;33.27;96826.91;4994800;28;20054;-61
2022/06/19 11:14:34;;;;;;;1.75;0.82;;;;;;;25.63;30.41;96824.66;4994753;28;20054;-61
2022/06/19 11:17:06;;;;;;;2.55;1.10;;;;;;;25.59;29.57;96822.28;4994602;28;20100;-61
2022/06/19 11:19:39;;;;;;;1.17;0.90;;;;;;;25.76;31.94;96825.19;4994377;28;20050;-61
2022/06/19 11:22:19;;;;;;;3.67;0.80;;;;;;;25.83;34.47;96828.13;4994653;28;20054;-60
2022/06/19 11:24:47;;;;;;;3.28;0.90;;;;;;;25.68;32.24;96836.66;4994703;28;20052;-61
2022/06/19 11:27:18;;;;;;;1.40;0.90;;;;;;;25.58;34.06;96825.06;4994643;28;20042;-60
2022/06/19 11:29:49;;;;;;;1.83;0.95;;;;;;;25.52;32.65;96829.19;4997658;28;20048;-61
2022/06/19 11:32:18;;;;;;;1.10;0.90;;;;;;;25.60;34.07;96825.81;5006236;28;20081;-60
2022/06/19 11:34:59;;;;;;;4.10;0.95;;;;;;;25.94;32.17;96819.88;4993671;28;20046;-59
2022/06/19 11:37:29;;;;;;;2.72;0.90;;;;;;;26.32;31.57;96821.66;4994361;28;20046;-61
2022/06/19 11:40:15;;;;;;;1.80;0.98;;;;;;;26.49;30.21;96820.84;4994413;28;20527;-60
2022/06/19 11:42:49;;;;;;;2.05;1.20;;;;;;;26.78;29.53;96818.09;4974898;28;20042;-61
2022/06/19 11:45:26;;;;;;;1.52;0.88;;;;;;;26.31;31.75;96828.03;4974963;28;20047;-61
2022/06/19 11:48:03;;;;;;;4.65;0.90;;;;;;;25.49;31.15;96832.16;4974753;28;20563;-60
2022/06/19 11:50:48;;;;;;;1.42;1.17;;;;;;;25.28;33.68;96824.34;5007523;28;20085;-61
2022/06/19 11:53:19;;;;;;;1.30;0.93;;;;;;;25.47;33.83;96816.22;5013797;28;20046;-61
2022/06/19 11:55:47;;;;;;;;;;;;;;;25.83;32.83;96810.19;5014184;28;20050;-61
2022/06/19 11:58:22;;;;;;;3.35;1.10;;;;;;;25.95;31.32;96802.81;5013632;28;19925;-61
2022/06/19 12:01:00;;;;;;;2.05;0.93;;;;;;;25.99;32.67;96811.41;4997247;28;20092;-61